createdAt,value
2024-01-11T00:01:26.265Z,18.63
2024-01-11T00:03:54.703Z,19.90
2024-01-11T00:06:24.676Z,16.37
2024-01-11T00:08:53.221Z,18.93
2024-01-11T00:11:21.624Z,16.87
2024-01-11T00:13:50.028Z,18.17
2024-01-11T00:16:18.350Z,15.23
2024-01-11T00:18:46.951Z,16.70
2024-01-11T00:21:15.544Z,22.07
2024-01-11T00:23:45.440Z,21.50
2024-01-11T00:26:15.310Z,13.97
2024-01-11T00:28:43.664Z,17.37
2024-01-11T00:31:12.891Z,17.63
2024-01-11T00:33:42.176Z,16.50
2024-01-11T00:36:10.714Z,17.70
2024-01-11T00:38:39.293Z,17.27
2024-01-11T00:41:09.210Z,17.90
2024-01-11T00:43:37.588Z,18.23
2024-01-11T00:46:06.164Z,18.27
2024-01-11T00:48:34.694Z,16.10
2024-01-11T00:51:03.173Z,15.73
2024-01-11T00:53:32.655Z,15.33
2024-01-11T00:56:01.548Z,16.00
2024-01-11T00:58:31.383Z,17.33
2024-01-11T01:00:59.731Z,15.97
2024-01-11T01:03:28.130Z,18.10
2024-01-11T01:05:56.680Z,17.87
2024-01-11T01:08:25.104Z,15.50
2024-01-11T01:10:53.488Z,19.80
2024-01-11T01:13:21.764Z,16.50
2024-01-11T01:15:51.548Z,20.47
2024-01-11T01:18:20.007Z,15.90
2024-01-11T01:20:48.421Z,19.27
2024-01-11T01:23:16.831Z,20.37
2024-01-11T01:25:45.205Z,19.77
2024-01-11T01:28:13.622Z,17.40
2024-01-11T01:30:42.058Z,15.60
2024-01-11T01:33:12.152Z,15.60
2024-01-11T01:35:40.664Z,17.93
2024-01-11T01:38:09.019Z,19.77
2024-01-11T01:40:37.313Z,23.77
2024-01-11T01:43:10.206Z,21.00
2024-01-11T01:45:38.568Z,20.80
2024-01-11T01:48:07.648Z,15.20
2024-01-11T01:50:37.715Z,18.97
2024-01-11T01:53:06.485Z,22.27
2024-01-11T01:55:35.245Z,23.47
2024-01-11T01:58:05.676Z,20.83
2024-01-11T02:00:34.269Z,17.80
2024-01-11T02:03:03.149Z,17.33
2024-01-11T02:05:31.670Z,17.87
2024-01-11T02:08:06.192Z,19.60
2024-01-11T02:10:36.828Z,18.13
2024-01-11T02:13:08.298Z,18.23
2024-01-11T02:15:38.339Z,15.17
2024-01-11T02:18:07.182Z,13.83
2024-01-11T02:20:35.857Z,19.60
2024-01-11T02:23:10.733Z,15.70
2024-01-11T02:25:40.562Z,15.03
2024-01-11T02:28:09.647Z,15.70
2024-01-11T02:30:37.966Z,20.00
2024-01-11T02:33:07.747Z,17.53
2024-01-11T02:35:38.734Z,17.00
2024-01-11T02:38:08.861Z,19.43
2024-01-11T02:40:39.606Z,17.50
2024-01-11T02:43:11.797Z,23.63
2024-01-11T02:45:40.458Z,17.60
2024-01-11T02:48:09.073Z,18.97
2024-01-11T02:50:37.643Z,17.10
2024-01-11T02:53:06.227Z,15.30
2024-01-11T02:55:34.509Z,20.83
2024-01-11T02:58:04.358Z,17.20
2024-01-11T03:00:32.634Z,15.33
2024-01-11T03:03:00.952Z,14.67
2024-01-11T03:05:29.442Z,12.90
2024-01-11T03:07:57.915Z,18.33
2024-01-11T03:10:26.239Z,14.67
2024-01-11T03:12:54.585Z,16.07
2024-01-11T03:15:24.443Z,17.23
2024-01-11T03:17:52.986Z,16.33
2024-01-11T03:20:25.891Z,19.60
2024-01-11T03:22:54.392Z,14.17
2024-01-11T03:25:22.837Z,17.37
2024-01-11T03:27:51.324Z,13.63
2024-01-11T03:30:19.917Z,20.60
2024-01-11T03:32:50.075Z,18.73
2024-01-11T03:35:18.607Z,17.90
2024-01-11T03:37:47.153Z,23.90
2024-01-11T03:40:15.473Z,20.17
2024-01-11T03:42:45.242Z,17.83
2024-01-11T03:45:13.524Z,24.00
2024-01-11T03:47:43.438Z,20.70
2024-01-11T03:50:13.574Z,17.83
2024-01-11T03:52:42.240Z,22.77
2024-01-11T03:55:10.995Z,22.60
2024-01-11T03:57:39.252Z,23.60
2024-01-11T04:00:11.664Z,18.47
2024-01-11T04:02:40.566Z,17.07
2024-01-11T04:05:09.871Z,18.33
2024-01-11T04:07:39.714Z,20.70
2024-01-11T04:10:10.494Z,27.37
2024-01-11T04:12:39.218Z,17.90
2024-01-11T04:15:08.413Z,21.97
2024-01-11T04:17:36.901Z,16.20
2024-01-11T04:20:05.969Z,21.93
2024-01-11T04:22:34.297Z,26.07
2024-01-11T04:25:04.060Z,24.10
2024-01-11T04:27:32.390Z,25.03
2024-01-11T04:30:00.962Z,21.53
2024-01-11T04:32:29.414Z,19.40
2024-01-11T04:34:58.061Z,21.83
2024-01-11T04:37:26.423Z,18.43
2024-01-11T04:39:54.776Z,18.13
2024-01-11T04:42:24.539Z,17.20
2024-01-11T04:44:53.139Z,18.37
2024-01-11T04:47:21.660Z,16.33
2024-01-11T04:49:49.956Z,20.80
2024-01-11T04:52:18.406Z,17.70
2024-01-11T04:54:46.645Z,21.67
2024-01-11T04:57:14.897Z,21.30
2024-01-11T04:59:44.740Z,18.20
2024-01-11T05:02:13.085Z,18.43
2024-01-11T05:04:41.445Z,20.93
2024-01-11T05:07:09.723Z,20.80
2024-01-11T05:09:38.005Z,22.97
2024-01-11T05:12:07.217Z,17.97
2024-01-11T05:14:35.554Z,17.40
2024-01-11T05:17:05.599Z,22.33
2024-01-11T05:19:34.010Z,22.50
2024-01-11T05:22:02.356Z,22.47
2024-01-11T05:24:30.674Z,15.53
2024-01-11T05:26:59.270Z,22.40
2024-01-11T05:29:27.764Z,20.57
2024-01-11T05:31:56.230Z,23.23
2024-01-11T05:34:26.905Z,25.17
2024-01-11T05:36:55.189Z,20.43
2024-01-11T05:39:23.570Z,20.07
2024-01-11T05:41:51.877Z,23.63
2024-01-11T05:44:20.168Z,20.17
2024-01-11T05:46:48.563Z,18.57
2024-01-11T05:49:16.997Z,22.27
2024-01-11T05:51:46.876Z,20.07
2024-01-11T05:54:15.181Z,27.53
2024-01-11T05:56:43.592Z,26.97
2024-01-11T05:59:12.046Z,18.80
2024-01-11T06:01:43.977Z,17.77
2024-01-11T06:04:12.308Z,20.70
2024-01-11T06:06:40.676Z,23.00
2024-01-11T06:09:11.381Z,17.50
2024-01-11T06:11:39.834Z,18.87
2024-01-11T06:14:08.247Z,22.80
2024-01-11T06:16:36.787Z,23.70
2024-01-11T06:19:05.251Z,19.43
2024-01-11T06:21:33.638Z,23.67
2024-01-11T06:24:02.059Z,22.10
2024-01-11T06:26:31.925Z,14.40
2024-01-11T06:29:00.324Z,20.47
2024-01-11T06:31:28.647Z,16.20
2024-01-11T06:33:56.999Z,18.73
2024-01-11T06:36:25.289Z,20.53
2024-01-11T06:38:53.665Z,17.90
2024-01-11T06:41:21.954Z,17.80
2024-01-11T06:43:51.735Z,19.53
2024-01-11T06:46:22.693Z,21.87
2024-01-11T06:48:51.618Z,20.37
2024-01-11T06:51:23.536Z,17.17
2024-01-11T06:53:52.139Z,18.73
2024-01-11T06:56:22.150Z,22.23
2024-01-11T06:58:52.027Z,21.80
2024-01-11T07:01:20.694Z,24.20
2024-01-11T07:03:49.368Z,21.57
2024-01-11T07:06:18.092Z,22.90
2024-01-11T07:08:46.645Z,24.87
2024-01-11T07:11:15.143Z,23.60
2024-01-11T07:13:43.843Z,20.07
2024-01-11T07:16:16.326Z,25.70
2024-01-11T07:18:44.996Z,24.23
2024-01-11T07:21:13.364Z,21.37
2024-01-11T07:23:41.813Z,18.40
2024-01-11T07:26:10.330Z,23.17
2024-01-11T07:28:38.705Z,19.40
2024-01-11T07:31:07.284Z,23.93
2024-01-11T07:33:37.291Z,25.67
2024-01-11T07:36:06.405Z,22.50
2024-01-11T07:38:35.059Z,24.23
2024-01-11T07:41:03.562Z,22.80
2024-01-11T07:43:41.576Z,23.43
2024-01-11T07:46:17.672Z,22.03
2024-01-11T07:48:47.485Z,28.30
2024-01-11T07:51:15.829Z,22.07
2024-01-11T07:53:44.163Z,21.53
2024-01-11T07:56:12.455Z,23.20
2024-01-11T07:58:40.784Z,25.77
2024-01-11T08:01:09.227Z,20.87
2024-01-11T08:03:37.652Z,23.87
2024-01-11T08:06:08.896Z,22.97
2024-01-11T08:08:37.708Z,27.70
2024-01-11T08:11:06.227Z,23.27
2024-01-11T08:13:35.965Z,23.83
2024-01-11T08:16:05.768Z,22.20
2024-01-11T08:18:34.207Z,21.77
2024-01-11T08:21:02.594Z,26.77
2024-01-11T08:23:32.962Z,26.27
2024-01-11T08:26:01.354Z,24.07
2024-01-11T08:28:29.724Z,20.27
2024-01-11T08:30:58.159Z,27.87
2024-01-11T08:33:27.032Z,23.63
2024-01-11T08:35:55.397Z,24.70
2024-01-11T08:38:23.776Z,32.27
2024-01-11T08:40:53.528Z,23.67
2024-01-11T08:43:21.750Z,26.27
2024-01-11T08:45:50.091Z,30.60
2024-01-11T08:48:18.819Z,29.50
2024-01-11T08:50:47.360Z,26.03
2024-01-11T08:53:16.880Z,26.30
2024-01-11T08:55:46.832Z,27.43
2024-01-11T08:58:16.909Z,26.17
2024-01-11T09:00:45.449Z,26.83
2024-01-11T09:03:15.364Z,33.47
2024-01-11T09:05:43.912Z,22.17
2024-01-11T09:08:12.426Z,29.70
2024-01-11T09:10:42.791Z,26.53
2024-01-11T09:13:13.336Z,28.30
2024-01-11T09:15:44.775Z,24.93
2024-01-11T09:18:13.358Z,28.30
2024-01-11T09:20:41.826Z,25.57
2024-01-11T09:23:10.287Z,26.27
2024-01-11T09:25:38.822Z,28.23
2024-01-11T09:28:07.544Z,25.80
2024-01-11T09:30:35.992Z,28.10
2024-01-11T09:33:07.625Z,28.30
2024-01-11T09:35:36.274Z,26.50
2024-01-11T09:38:05.257Z,22.93
2024-01-11T09:40:33.911Z,26.70
2024-01-11T09:43:05.982Z,32.13
2024-01-11T09:45:35.737Z,31.60
2024-01-11T09:48:06.232Z,26.93
2024-01-11T09:50:35.419Z,26.03
2024-01-11T09:53:06.951Z,22.77
2024-01-11T09:55:37.919Z,23.10
2024-01-11T09:58:07.271Z,27.03
2024-01-11T10:00:36.647Z,25.43
2024-01-11T10:03:07.092Z,27.80
2024-01-11T10:05:37.980Z,21.97
2024-01-11T10:08:07.219Z,22.83
2024-01-11T10:10:36.375Z,23.00
2024-01-11T10:13:04.854Z,26.00
2024-01-11T10:15:33.419Z,27.13
2024-01-11T10:18:02.093Z,31.17
2024-01-11T10:20:33.587Z,25.30
2024-01-11T10:23:02.488Z,27.40
2024-01-11T10:25:31.275Z,22.80
2024-01-11T10:28:00.945Z,27.93
2024-01-11T10:30:29.347Z,26.83
2024-01-11T10:33:00.288Z,24.20
2024-01-11T10:35:28.878Z,21.37
2024-01-11T10:38:01.073Z,26.87
2024-01-11T10:40:30.987Z,20.20
2024-01-11T10:43:02.796Z,22.63
2024-01-11T10:45:40.102Z,22.70
2024-01-11T10:48:14.687Z,20.43
2024-01-11T10:50:45.902Z,20.17
2024-01-11T10:53:31.710Z,22.37
2024-01-11T10:56:01.442Z,30.47
2024-01-11T10:58:29.906Z,18.13
2024-01-11T11:01:00.462Z,18.57
2024-01-11T11:03:29.874Z,26.13
2024-01-11T11:05:59.372Z,23.93
2024-01-11T11:08:29.649Z,20.00
2024-01-11T11:10:59.238Z,19.60
2024-01-11T11:13:28.534Z,20.13
2024-01-11T11:16:01.673Z,17.60
2024-01-11T11:18:31.023Z,20.97
2024-01-11T11:21:00.154Z,20.63
2024-01-11T11:23:30.056Z,23.30
2024-01-11T11:25:59.169Z,18.90
2024-01-11T11:28:28.918Z,17.33
2024-01-11T11:30:58.951Z,18.23
2024-01-11T11:33:27.597Z,18.73
2024-01-11T11:35:57.563Z,23.40
2024-01-11T11:38:29.837Z,20.03
2024-01-11T11:41:00.989Z,15.80
2024-01-11T11:43:31.370Z,17.13
2024-01-11T11:46:03.937Z,18.77
2024-01-11T11:48:52.559Z,14.93
2024-01-11T11:51:23.177Z,20.57
2024-01-11T11:53:54.303Z,17.93
2024-01-11T11:56:25.361Z,11.90
2024-01-11T11:58:56.520Z,13.03
2024-01-11T12:01:25.598Z,19.47
2024-01-11T12:03:55.594Z,12.77
2024-01-11T12:06:26.713Z,14.50
2024-01-11T12:08:57.880Z,11.73
2024-01-11T12:11:28.809Z,12.90
2024-01-11T12:13:59.197Z,15.53
2024-01-11T12:16:28.599Z,13.53
2024-01-11T12:18:57.306Z,13.97
2024-01-11T12:21:25.856Z,15.47
2024-01-11T12:23:54.382Z,15.23
2024-01-11T12:26:24.165Z,16.93
2024-01-11T12:28:55.049Z,15.27
2024-01-11T12:31:24.686Z,13.27
2024-01-11T12:33:53.811Z,12.37
2024-01-11T12:36:22.728Z,15.40
2024-01-11T12:38:53.195Z,10.53
2024-01-11T12:41:24.890Z,9.67
2024-01-11T12:43:55.311Z,12.80
2024-01-11T12:46:24.071Z,14.77
2024-01-11T12:48:53.163Z,19.00
2024-01-11T12:51:23.095Z,11.17
2024-01-11T12:53:53.311Z,10.47
2024-01-11T12:56:23.179Z,12.70
2024-01-11T12:58:51.937Z,10.40
2024-01-11T13:01:22.517Z,12.73
2024-01-11T13:03:51.324Z,9.47
2024-01-11T13:06:20.886Z,12.50
2024-01-11T13:08:49.476Z,9.57
2024-01-11T13:11:18.846Z,14.73
2024-01-11T13:13:49.058Z,10.10
2024-01-11T13:16:17.702Z,9.47
2024-01-11T13:18:47.510Z,13.63
2024-01-11T13:21:16.016Z,13.77
2024-01-11T13:23:44.517Z,15.53
2024-01-11T13:26:13.261Z,12.77
2024-01-11T13:28:41.962Z,9.03
2024-01-11T13:31:12.163Z,9.70
2024-01-11T13:33:42.052Z,7.93
2024-01-11T13:36:11.964Z,11.53
2024-01-11T13:38:40.529Z,9.43
2024-01-11T13:41:09.767Z,10.70
2024-01-11T13:43:38.588Z,7.67
2024-01-11T13:46:07.086Z,8.60
2024-01-11T13:48:35.824Z,9.70
2024-01-11T13:51:05.546Z,10.20
2024-01-11T13:53:35.532Z,6.67
2024-01-11T13:56:04.263Z,7.90
2024-01-11T13:58:32.793Z,7.93
2024-01-11T14:01:01.222Z,8.33
2024-01-11T14:03:29.719Z,11.23
2024-01-11T14:05:58.345Z,9.00
2024-01-11T14:08:27.745Z,9.67
2024-01-11T14:10:57.680Z,14.80
2024-01-11T14:13:25.991Z,11.67
2024-01-11T14:15:55.238Z,7.40
2024-01-11T14:18:25.076Z,9.97
2024-01-11T14:20:54.790Z,10.07
2024-01-11T14:23:23.214Z,12.57
2024-01-11T14:25:51.598Z,12.47
2024-01-11T14:28:22.032Z,11.33
2024-01-11T14:30:51.489Z,8.63
2024-01-11T14:33:21.298Z,12.40
2024-01-11T14:35:49.809Z,9.30
2024-01-11T14:38:18.311Z,15.60
2024-01-11T14:40:46.871Z,12.53
2024-01-11T14:43:15.900Z,11.73
2024-01-11T14:45:46.102Z,11.30
2024-01-11T14:48:14.632Z,15.00
2024-01-11T14:50:43.089Z,19.97
2024-01-11T14:53:11.625Z,10.00
2024-01-11T14:55:40.075Z,15.53
2024-01-11T14:58:08.420Z,9.87
2024-01-11T15:00:36.668Z,10.30
2024-01-11T15:03:06.983Z,12.77
2024-01-11T15:05:35.315Z,9.27
2024-01-11T15:08:03.787Z,11.80
2024-01-11T15:10:32.895Z,11.50
2024-01-11T15:13:01.235Z,8.80
2024-01-11T15:15:30.206Z,11.00
2024-01-11T15:17:58.779Z,11.13
2024-01-11T15:20:28.684Z,8.77
2024-01-11T15:22:57.094Z,13.03
2024-01-11T15:25:27.903Z,12.07
2024-01-11T15:27:56.511Z,11.53
2024-01-11T15:30:25.220Z,15.53
2024-01-11T15:32:53.885Z,10.60
2024-01-11T15:35:23.011Z,9.47
2024-01-11T15:37:52.927Z,11.57
2024-01-11T15:40:21.411Z,16.33
2024-01-11T15:42:50.500Z,14.20
2024-01-11T15:45:18.887Z,17.30
2024-01-11T15:47:47.352Z,19.67
2024-01-11T15:50:15.763Z,13.03
2024-01-11T15:52:44.364Z,10.37
2024-01-11T15:55:14.192Z,14.70
2024-01-11T15:57:42.526Z,14.67
2024-01-11T16:00:12.899Z,11.00
2024-01-11T16:02:43.080Z,10.70
2024-01-11T16:05:12.393Z,10.10
2024-01-11T16:07:41.339Z,14.60
2024-01-11T16:10:11.073Z,12.10
2024-01-11T16:12:40.873Z,16.93
2024-01-11T16:15:11.083Z,12.33
2024-01-11T16:17:39.526Z,16.33
2024-01-11T16:20:09.429Z,9.70
2024-01-11T16:22:38.279Z,12.23
2024-01-11T16:25:07.274Z,12.07
2024-01-11T16:27:35.620Z,11.63
2024-01-11T16:30:06.832Z,13.30
2024-01-11T16:32:35.488Z,12.27
2024-01-11T16:35:03.896Z,18.80
2024-01-11T16:37:32.888Z,11.00
2024-01-11T16:40:01.156Z,14.13
2024-01-11T16:42:29.739Z,15.33
2024-01-11T16:44:58.253Z,10.53
2024-01-11T16:47:28.207Z,12.50
2024-01-11T16:49:56.607Z,16.67
2024-01-11T16:52:24.924Z,10.67
2024-01-11T16:54:53.453Z,13.60
2024-01-11T16:57:21.857Z,15.00
2024-01-11T16:59:50.707Z,11.80
2024-01-11T17:02:19.539Z,8.03
2024-01-11T17:04:49.666Z,11.27
2024-01-11T17:07:18.227Z,12.30
2024-01-11T17:09:46.911Z,11.67
2024-01-11T17:12:15.422Z,15.20
2024-01-11T17:14:44.061Z,16.93
2024-01-11T17:17:12.822Z,12.20
2024-01-11T17:19:41.349Z,14.33
2024-01-11T17:22:11.093Z,16.27
2024-01-11T17:24:39.701Z,15.40
2024-01-11T17:27:09.636Z,13.23
2024-01-11T17:29:39.993Z,11.83
2024-01-11T17:32:08.987Z,14.03
2024-01-11T17:34:37.522Z,15.87
2024-01-11T17:37:06.174Z,15.57
2024-01-11T17:39:36.697Z,12.97
2024-01-11T17:42:05.237Z,13.80
2024-01-11T17:44:33.759Z,19.23
2024-01-11T17:47:02.083Z,15.90
2024-01-11T17:49:30.450Z,22.67
2024-01-11T17:51:58.897Z,21.50
2024-01-11T17:54:27.430Z,16.97
2024-01-11T17:56:57.692Z,17.03
2024-01-11T17:59:26.072Z,13.13
2024-01-11T18:01:54.501Z,14.93
2024-01-11T18:04:24.112Z,14.87
2024-01-11T18:06:52.995Z,16.87
2024-01-11T18:09:21.394Z,19.73
2024-01-11T18:11:50.346Z,15.30
2024-01-11T18:14:20.664Z,12.93
2024-01-11T18:16:49.089Z,16.90
2024-01-11T18:19:17.637Z,12.67
2024-01-11T18:21:46.160Z,13.70
2024-01-11T18:24:15.248Z,14.77
2024-01-11T18:26:43.694Z,12.37
2024-01-11T18:29:12.152Z,17.60
2024-01-11T18:31:42.145Z,12.87
2024-01-11T18:34:10.556Z,15.00
2024-01-11T18:36:45.774Z,11.67
2024-01-11T18:39:14.346Z,12.77
2024-01-11T18:41:42.934Z,11.20
2024-01-11T18:44:12.284Z,12.07
2024-01-11T18:46:42.431Z,10.87
2024-01-11T18:49:13.601Z,10.17
2024-01-11T18:51:42.271Z,13.77
2024-01-11T18:54:11.090Z,15.80
2024-01-11T18:56:39.727Z,11.87
2024-01-11T18:59:09.110Z,12.00
2024-01-11T19:01:38.170Z,20.03
2024-01-11T19:04:11.743Z,17.67
2024-01-11T19:06:42.123Z,14.17
2024-01-11T19:09:11.978Z,18.00
2024-01-11T19:11:40.789Z,15.60
2024-01-11T19:14:11.105Z,15.93
2024-01-11T19:16:43.965Z,11.57
2024-01-11T19:19:54.521Z,19.17
2024-01-11T19:22:43.111Z,17.47
2024-01-11T19:25:20.712Z,16.00
2024-01-11T19:27:50.311Z,15.33
2024-01-11T19:30:22.957Z,16.37
2024-01-11T19:32:52.248Z,16.37
2024-01-11T19:35:22.922Z,15.00
2024-01-11T19:37:51.872Z,17.30
2024-01-11T19:40:20.753Z,12.10
2024-01-11T19:43:14.660Z,13.80
2024-01-11T19:45:44.902Z,11.53
2024-01-11T19:48:14.490Z,12.37
2024-01-11T19:50:44.862Z,10.50
2024-01-11T19:53:13.267Z,11.17
2024-01-11T19:55:43.241Z,11.13
2024-01-11T19:58:13.186Z,11.00
2024-01-11T20:00:42.830Z,9.40
2024-01-11T20:03:11.388Z,10.13
2024-01-11T20:05:40.617Z,13.90
2024-01-11T20:08:14.634Z,12.13
2024-01-11T20:10:45.047Z,16.23
2024-01-11T20:13:14.184Z,12.97
2024-01-11T20:18:36.752Z,12.70
2024-01-11T20:21:11.925Z,12.90
2024-01-11T20:23:45.276Z,17.50
2024-01-11T20:26:15.093Z,13.97
2024-01-11T20:28:44.002Z,14.23
2024-01-11T20:31:13.381Z,18.23
2024-01-11T20:33:42.248Z,17.63
2024-01-11T20:36:11.494Z,23.23
2024-01-11T20:38:41.537Z,14.73
2024-01-11T20:41:11.234Z,15.60
2024-01-11T20:43:41.702Z,16.20
2024-01-11T20:46:10.317Z,14.90
2024-01-11T20:48:40.198Z,17.07
2024-01-11T20:51:10.947Z,18.07
2024-01-11T20:53:39.347Z,16.73
2024-01-11T20:56:09.652Z,20.40
2024-01-11T20:58:38.421Z,19.23
2024-01-11T21:01:07.025Z,21.97
2024-01-11T21:03:36.126Z,20.17
2024-01-11T21:06:05.782Z,23.90
2024-01-11T21:08:35.652Z,29.67
2024-01-11T21:11:04.505Z,24.70
2024-01-11T21:13:34.771Z,22.77
2024-01-11T21:16:04.236Z,18.10
2024-01-11T21:18:34.917Z,25.63
2024-01-11T21:21:03.809Z,21.07
2024-01-11T21:23:32.452Z,23.77
2024-01-11T21:26:00.886Z,18.87
2024-01-11T21:28:29.989Z,18.43
2024-01-11T21:31:00.277Z,20.27
2024-01-11T21:33:29.031Z,16.47
2024-01-11T21:35:57.467Z,19.23
2024-01-11T21:38:25.903Z,19.37
2024-01-11T21:40:54.287Z,20.63
2024-01-11T21:43:22.685Z,21.50
2024-01-11T21:45:51.220Z,19.67
2024-01-11T21:48:21.197Z,25.47
2024-01-11T21:50:50.507Z,32.33
2024-01-11T21:53:18.935Z,31.10
2024-01-11T21:55:47.284Z,25.23
2024-01-11T21:58:19.491Z,32.77
2024-01-11T22:00:47.967Z,30.80
2024-01-11T22:03:16.555Z,34.33
2024-01-11T22:05:46.513Z,36.37
2024-01-11T22:08:32.477Z,36.43
2024-01-11T22:11:01.115Z,27.03
2024-01-11T22:13:29.579Z,33.40
2024-01-11T22:15:58.781Z,36.77
2024-01-11T22:18:27.519Z,28.93
2024-01-11T22:20:58.529Z,25.57
2024-01-11T22:23:27.512Z,27.60
2024-01-11T22:25:56.155Z,31.70
2024-01-11T22:28:24.473Z,33.23
2024-01-11T22:30:53.087Z,33.33
2024-01-11T22:33:21.582Z,27.70
2024-01-11T22:35:50.136Z,27.57
2024-01-11T22:38:19.925Z,35.93
2024-01-11T22:40:49.052Z,37.33
2024-01-11T22:43:17.372Z,30.17
2024-01-11T22:45:45.739Z,27.60
2024-01-11T22:48:14.431Z,31.20
2024-01-11T22:50:42.997Z,25.67
2024-01-11T22:53:11.479Z,26.00
2024-01-11T22:55:41.305Z,28.80
2024-01-11T22:58:09.605Z,25.67
2024-01-11T23:00:39.248Z,22.50
2024-01-11T23:03:07.720Z,29.80
2024-01-11T23:05:36.336Z,33.13
2024-01-11T23:08:04.991Z,26.50
2024-01-11T23:10:36.525Z,26.27
2024-01-11T23:13:07.114Z,26.67
2024-01-11T23:15:35.463Z,24.37
2024-01-11T23:18:03.912Z,26.87
2024-01-11T23:20:32.820Z,22.67
2024-01-11T23:23:01.336Z,24.63
2024-01-11T23:25:33.998Z,30.70
2024-01-11T23:28:02.680Z,32.03
2024-01-11T23:30:35.441Z,32.43
2024-01-11T23:33:04.063Z,26.90
2024-01-11T23:35:32.460Z,30.30
2024-01-11T23:38:00.736Z,25.77
2024-01-11T23:40:29.137Z,25.40
2024-01-11T23:42:57.519Z,28.03
2024-01-11T23:45:25.840Z,28.30
2024-01-11T23:47:55.772Z,26.77
2024-01-11T23:50:24.263Z,24.37
2024-01-11T23:52:52.663Z,27.30
2024-01-11T23:55:21.088Z,27.93
2024-01-11T23:57:49.473Z,24.37
